createdAt,value
2023-07-22T00:00:07.417Z,66.01
2023-07-22T00:02:34.659Z,66.46
2023-07-22T00:05:01.872Z,66.53
2023-07-22T00:07:28.924Z,66.90
2023-07-22T00:09:56.132Z,67.08
2023-07-22T00:12:26.804Z,67.34
2023-07-22T00:14:56.692Z,67.42
2023-07-22T00:17:25.782Z,67.98
2023-07-22T00:19:52.990Z,68.27
2023-07-22T00:22:21.437Z,68.46
2023-07-22T00:24:48.980Z,68.25
2023-07-22T00:27:16.359Z,68.60
2023-07-22T00:29:43.530Z,68.47
2023-07-22T00:32:10.841Z,68.63
2023-07-22T00:34:40.856Z,68.46
2023-07-22T00:37:08.057Z,68.66
2023-07-22T00:39:35.367Z,68.74
2023-07-22T00:42:02.671Z,68.75
2023-07-22T00:44:29.950Z,68.90
2023-07-22T00:46:59.745Z,68.97
2023-07-22T00:49:28.803Z,69.24
2023-07-22T00:52:00.495Z,68.81
2023-07-22T00:54:27.668Z,68.96
2023-07-22T00:56:56.236Z,69.30
2023-07-22T00:59:23.372Z,69.43
2023-07-22T01:01:50.528Z,69.26
2023-07-22T01:04:21.354Z,69.12
2023-07-22T01:06:51.154Z,68.65
2023-07-22T01:09:18.317Z,68.86
2023-07-22T01:11:45.955Z,68.62
2023-07-22T01:14:13.179Z,68.48
2023-07-22T01:16:40.953Z,68.83
2023-07-22T01:19:09.874Z,69.10
2023-07-22T01:21:38.541Z,69.21
2023-07-22T01:24:06.406Z,68.80
2023-07-22T01:26:33.705Z,69.03
2023-07-22T01:29:07.774Z,69.97
2023-07-22T01:31:39.489Z,69.91
2023-07-22T01:34:06.987Z,69.54
2023-07-22T01:36:34.130Z,69.25
2023-07-22T01:39:02.034Z,69.29
2023-07-22T01:41:29.408Z,69.51
2023-07-22T01:43:56.551Z,69.75
2023-07-22T01:46:23.960Z,69.72
2023-07-22T01:48:51.043Z,68.60
2023-07-22T01:51:18.127Z,68.72
2023-07-22T01:53:45.258Z,68.61
2023-07-22T01:56:12.396Z,68.56
2023-07-22T01:58:39.477Z,68.53
2023-07-22T02:01:06.846Z,68.64
2023-07-22T02:03:34.081Z,68.57
2023-07-22T02:06:07.808Z,68.94
2023-07-22T02:08:35.264Z,68.96
2023-07-22T02:11:07.567Z,69.05
2023-07-22T02:13:36.166Z,69.39
2023-07-22T02:16:04.501Z,69.65
2023-07-22T02:18:31.801Z,70.14
2023-07-22T02:20:59.266Z,70.47
2023-07-22T02:23:26.425Z,70.35
2023-07-22T02:25:54.933Z,70.55
2023-07-22T02:28:23.131Z,70.74
2023-07-22T02:30:51.491Z,70.85
2023-07-22T02:33:18.750Z,71.31
2023-07-22T02:35:46.281Z,71.23
2023-07-22T02:38:15.531Z,70.42
2023-07-22T02:40:42.840Z,70.01
2023-07-22T02:43:11.344Z,69.52
2023-07-22T02:45:38.612Z,69.87
2023-07-22T02:48:06.339Z,69.98
2023-07-22T02:50:33.945Z,70.40
2023-07-22T02:53:01.026Z,71.22
2023-07-22T02:55:28.075Z,71.38
2023-07-22T02:57:55.393Z,71.76
2023-07-22T03:00:25.473Z,71.58
2023-07-22T03:02:54.069Z,71.49
2023-07-22T03:05:22.518Z,71.65
2023-07-22T03:07:49.994Z,71.51
2023-07-22T03:10:17.239Z,71.61
2023-07-22T03:12:44.433Z,72.01
2023-07-22T03:15:14.127Z,72.49
2023-07-22T03:17:43.267Z,72.47
2023-07-22T03:20:18.591Z,73.24
2023-07-22T03:22:45.767Z,73.14
2023-07-22T03:25:14.521Z,73.10
2023-07-22T03:27:42.618Z,73.03
2023-07-22T03:30:13.168Z,73.26
2023-07-22T03:32:40.312Z,73.18
2023-07-22T03:35:12.324Z,73.13
2023-07-22T03:37:40.676Z,72.98
2023-07-22T03:40:21.686Z,73.13
2023-07-22T03:42:50.915Z,73.00
2023-07-22T03:45:19.308Z,72.91
2023-07-22T03:47:48.217Z,73.11
2023-07-22T03:50:15.613Z,73.08
2023-07-22T03:52:42.793Z,72.95
2023-07-22T03:55:10.509Z,72.77
2023-07-22T03:57:37.764Z,73.32
2023-07-22T04:00:06.743Z,73.41
2023-07-22T04:02:39.823Z,73.29
2023-07-22T04:05:07.200Z,73.90
2023-07-22T04:07:34.502Z,73.75
2023-07-22T04:10:01.780Z,73.88
2023-07-22T04:12:30.187Z,74.20
2023-07-22T04:14:57.384Z,74.20
2023-07-22T04:17:24.462Z,74.14
2023-07-22T04:19:53.317Z,73.85
2023-07-22T04:22:22.460Z,73.68
2023-07-22T04:24:50.476Z,73.26
2023-07-22T04:27:18.336Z,73.12
2023-07-22T04:29:46.956Z,72.55
2023-07-22T04:32:14.445Z,72.21
2023-07-22T04:34:41.541Z,72.40
2023-07-22T04:37:09.121Z,72.84
2023-07-22T04:39:36.732Z,72.88
2023-07-22T04:42:03.929Z,72.83
2023-07-22T04:44:31.297Z,73.24
2023-07-22T04:46:58.694Z,73.02
2023-07-22T04:49:25.942Z,72.92
2023-07-22T04:51:53.092Z,73.26
2023-07-22T04:54:20.414Z,73.84
2023-07-22T04:56:47.492Z,73.76
2023-07-22T04:59:16.092Z,73.71
2023-07-22T05:01:45.022Z,73.63
2023-07-22T05:04:12.299Z,73.10
2023-07-22T05:06:39.371Z,72.62
2023-07-22T05:09:06.493Z,72.23
2023-07-22T05:11:33.638Z,72.25
2023-07-22T05:14:00.772Z,71.79
2023-07-22T05:16:28.332Z,71.48
2023-07-22T05:18:55.733Z,71.10
2023-07-22T05:21:22.837Z,71.25
2023-07-22T05:23:49.919Z,71.02
2023-07-22T05:26:17.278Z,70.88
2023-07-22T05:28:44.400Z,70.45
2023-07-22T05:31:11.781Z,70.20
2023-07-22T05:33:38.889Z,69.54
2023-07-22T05:36:06.203Z,69.34
2023-07-22T05:38:33.498Z,69.26
2023-07-22T05:41:00.913Z,69.35
2023-07-22T05:43:28.364Z,68.85
2023-07-22T05:45:55.640Z,68.05
2023-07-22T05:48:23.034Z,68.00
2023-07-22T05:50:50.397Z,67.94
2023-07-22T05:53:18.189Z,68.13
2023-07-22T05:55:45.433Z,68.08
2023-07-22T05:58:19.560Z,67.77
2023-07-22T06:00:50.506Z,67.43
2023-07-22T06:03:17.974Z,67.30
2023-07-22T06:05:45.202Z,66.85
2023-07-22T06:08:12.374Z,66.56
2023-07-22T06:10:40.995Z,66.05
2023-07-22T06:13:08.275Z,65.48
2023-07-22T06:15:35.652Z,65.29
2023-07-22T06:18:03.502Z,64.62
2023-07-22T06:20:31.276Z,64.62
2023-07-22T06:22:58.447Z,64.69
2023-07-22T06:25:25.681Z,64.08
2023-07-22T06:27:55.479Z,63.48
2023-07-22T06:30:22.851Z,62.94
2023-07-22T06:32:50.168Z,61.96
2023-07-22T06:35:18.771Z,61.14
2023-07-22T06:37:45.983Z,60.69
2023-07-22T06:40:13.244Z,59.82
2023-07-22T06:42:40.483Z,57.93
2023-07-22T06:45:08.526Z,57.42
2023-07-22T06:47:36.328Z,57.05
2023-07-22T06:50:05.610Z,56.79
2023-07-22T06:52:33.572Z,55.74
2023-07-22T06:55:01.156Z,55.73
2023-07-22T06:57:28.382Z,55.43
2023-07-22T06:59:55.646Z,55.35
2023-07-22T07:02:23.284Z,55.07
2023-07-22T07:04:50.801Z,55.06
2023-07-22T07:07:18.094Z,54.43
2023-07-22T07:09:45.204Z,54.22
2023-07-22T07:12:12.444Z,53.30
2023-07-22T07:14:39.809Z,53.37
2023-07-22T07:17:07.272Z,53.45
2023-07-22T07:19:35.209Z,52.93
2023-07-22T07:22:02.354Z,52.19
2023-07-22T07:24:29.911Z,50.87
2023-07-22T07:26:57.345Z,49.79
2023-07-22T07:29:39.356Z,48.69
2023-07-22T07:32:11.838Z,49.21
2023-07-22T07:34:39.265Z,48.74
2023-07-22T07:37:07.155Z,48.24
2023-07-22T07:39:34.521Z,47.66
2023-07-22T07:42:01.781Z,47.19
2023-07-22T07:44:28.919Z,46.80
2023-07-22T07:46:56.220Z,46.86
2023-07-22T07:49:23.537Z,46.58
2023-07-22T07:51:50.681Z,46.54
2023-07-22T07:54:18.022Z,46.84
2023-07-22T07:56:45.256Z,47.50
2023-07-22T07:59:12.529Z,48.34
2023-07-22T08:01:43.471Z,48.86
2023-07-22T08:04:14.245Z,49.17
2023-07-22T08:06:42.345Z,49.08
2023-07-22T08:09:17.452Z,49.46
2023-07-22T08:11:44.561Z,49.62
2023-07-22T08:14:12.030Z,50.16
2023-07-22T08:16:39.363Z,50.01
2023-07-22T08:19:06.477Z,49.42
2023-07-22T08:21:33.605Z,48.87
2023-07-22T08:24:00.810Z,49.09
2023-07-22T08:26:28.356Z,48.47
2023-07-22T08:28:56.088Z,48.27
2023-07-22T08:31:23.390Z,47.72
2023-07-22T08:33:50.567Z,48.18
2023-07-22T08:36:18.146Z,47.97
2023-07-22T08:38:45.795Z,48.57
2023-07-22T08:41:17.528Z,49.15
2023-07-22T08:43:48.261Z,49.95
2023-07-22T08:46:17.260Z,49.32
2023-07-22T08:48:49.895Z,50.56
2023-07-22T08:51:19.061Z,50.86
2023-07-22T08:56:33.262Z,51.34
2023-07-22T08:59:00.698Z,49.95
2023-07-22T09:01:28.215Z,48.77
2023-07-22T09:03:59.227Z,48.99
2023-07-22T09:06:27.047Z,48.84
2023-07-22T09:08:55.315Z,49.99
2023-07-22T09:11:23.322Z,50.12
2023-07-22T09:13:53.043Z,51.01
2023-07-22T09:16:22.050Z,52.03
2023-07-22T09:18:49.927Z,52.97
2023-07-22T09:21:17.290Z,53.71
2023-07-22T09:23:44.614Z,53.22
2023-07-22T09:26:17.175Z,51.54
2023-07-22T09:28:58.629Z,49.88
2023-07-22T09:31:27.669Z,49.20
2023-07-22T09:33:55.604Z,50.39
2023-07-22T09:36:22.998Z,51.83
2023-07-22T09:39:06.450Z,53.40
2023-07-22T09:41:33.863Z,54.65
2023-07-22T09:44:04.738Z,54.73
2023-07-22T09:46:36.247Z,53.02
2023-07-22T09:49:10.893Z,52.23
2023-07-22T09:51:52.849Z,51.37
2023-07-22T09:54:27.769Z,50.98
2023-07-22T09:56:54.846Z,50.72
2023-07-22T09:59:24.480Z,50.55
2023-07-22T10:01:53.032Z,49.74
2023-07-22T10:04:23.071Z,48.45
2023-07-22T10:06:50.895Z,48.00
2023-07-22T10:09:19.551Z,48.00
2023-07-22T10:11:47.164Z,47.45
2023-07-22T10:14:46.028Z,47.38
2023-07-22T10:17:18.102Z,46.60
2023-07-22T10:19:45.824Z,46.77
2023-07-22T10:22:13.520Z,46.98
2023-07-22T10:24:42.509Z,45.83
2023-07-22T10:27:09.682Z,45.03
2023-07-22T10:29:38.081Z,44.04
2023-07-22T10:32:06.045Z,44.45
2023-07-22T10:34:39.306Z,43.78
2023-07-22T10:37:06.636Z,43.52
2023-07-22T10:39:33.833Z,43.53
2023-07-22T10:42:07.185Z,42.74
2023-07-22T10:44:37.776Z,42.56
2023-07-22T10:47:07.034Z,41.10
2023-07-22T10:49:48.782Z,40.87
2023-07-22T10:52:16.181Z,40.21
2023-07-22T10:54:44.121Z,39.93
2023-07-22T10:57:27.700Z,39.41
2023-07-22T10:59:57.554Z,38.85
2023-07-22T11:02:30.501Z,38.45
2023-07-22T11:05:13.723Z,37.84
2023-07-22T11:07:48.814Z,36.59
2023-07-22T11:10:17.891Z,36.74
2023-07-22T11:12:47.790Z,36.20
2023-07-22T11:15:19.304Z,36.77
2023-07-22T11:17:46.837Z,36.98
2023-07-22T11:20:14.000Z,37.63
2023-07-22T11:22:42.273Z,37.84
2023-07-22T11:25:10.312Z,37.34
2023-07-22T11:27:37.828Z,36.62
2023-07-22T11:30:05.929Z,36.85
2023-07-22T11:32:33.943Z,36.86
2023-07-22T11:35:01.415Z,36.42
2023-07-22T11:37:31.403Z,36.74
2023-07-22T11:40:03.016Z,37.13
2023-07-22T11:42:31.009Z,37.42
2023-07-22T11:44:58.666Z,37.23
2023-07-22T11:47:35.235Z,37.41
2023-07-22T11:50:02.560Z,38.09
2023-07-22T11:52:31.208Z,38.46
2023-07-22T11:55:04.860Z,38.80
2023-07-22T11:57:59.703Z,38.79
2023-07-22T12:00:30.712Z,37.51
2023-07-22T12:02:58.694Z,37.41
2023-07-22T12:05:47.720Z,37.64
2023-07-22T12:08:25.661Z,38.41
2023-07-22T12:11:00.405Z,37.91
2023-07-22T12:13:50.661Z,38.28
2023-07-22T12:16:33.237Z,39.36
2023-07-22T12:19:02.837Z,39.78
2023-07-22T12:21:30.474Z,40.00
2023-07-22T12:23:57.556Z,40.60
2023-07-22T12:26:25.357Z,40.17
2023-07-22T12:28:52.767Z,39.45
2023-07-22T12:31:19.930Z,38.86
2023-07-22T12:33:47.398Z,38.98
2023-07-22T12:36:14.929Z,38.93
2023-07-22T12:38:49.025Z,39.07
2023-07-22T12:45:38.016Z,37.76
2023-07-22T12:48:06.693Z,38.01
2023-07-22T12:50:34.588Z,37.25
2023-07-22T12:53:03.445Z,37.08
2023-07-22T12:55:30.652Z,38.01
2023-07-22T12:57:58.111Z,37.97
2023-07-22T13:00:25.324Z,38.09
2023-07-22T13:02:52.571Z,38.01
2023-07-22T13:05:35.724Z,38.50
2023-07-22T13:08:14.318Z,39.25
2023-07-22T13:10:46.462Z,38.49
2023-07-22T13:13:13.511Z,38.76
2023-07-22T13:16:33.467Z,39.04
2023-07-22T13:20:30.082Z,38.62
2023-07-22T13:23:54.136Z,37.92
2023-07-22T13:27:20.293Z,38.57
2023-07-22T13:33:44.604Z,39.24
2023-07-22T13:40:27.538Z,39.20
2023-07-22T13:43:24.108Z,38.31
2023-07-22T13:45:51.214Z,38.85
2023-07-22T13:59:31.752Z,37.80
2023-07-22T14:02:07.758Z,38.32
2023-07-22T14:04:40.346Z,38.62
2023-07-22T14:07:07.719Z,39.09
2023-07-22T14:12:59.415Z,38.03
2023-07-22T14:15:39.014Z,38.20
2023-07-22T14:18:36.236Z,38.00
2023-07-22T14:21:34.095Z,38.19
2023-07-22T14:28:59.441Z,38.53
2023-07-22T14:32:41.116Z,38.55
2023-07-22T14:35:42.648Z,38.43
2023-07-22T14:38:29.953Z,38.65
2023-07-22T14:40:57.028Z,38.08
2023-07-22T14:43:24.762Z,37.48
2023-07-22T14:45:52.021Z,37.23
2023-07-22T14:48:19.176Z,37.57
2023-07-22T14:50:51.413Z,37.77
2023-07-22T14:53:20.257Z,37.47
2023-07-22T14:55:47.355Z,37.97
2023-07-22T14:58:14.323Z,38.56
2023-07-22T15:00:42.197Z,38.73
2023-07-22T15:03:09.697Z,38.33
2023-07-22T15:05:36.801Z,38.63
2023-07-22T15:08:04.076Z,38.66
2023-07-22T15:10:31.367Z,37.56
2023-07-22T15:12:58.435Z,36.87
2023-07-22T15:15:25.672Z,37.08
2023-07-22T15:17:52.991Z,36.77
2023-07-22T15:20:20.252Z,35.59
2023-07-22T15:22:47.880Z,35.83
2023-07-22T15:25:15.193Z,36.25
2023-07-22T15:28:14.514Z,36.57
2023-07-22T15:30:44.526Z,36.85
2023-07-22T15:33:11.696Z,36.56
2023-07-22T15:35:38.970Z,36.94
2023-07-22T15:38:06.224Z,36.92
2023-07-22T15:40:37.622Z,36.69
2023-07-22T15:43:05.145Z,36.23
2023-07-22T15:45:32.548Z,36.18
2023-07-22T15:48:01.085Z,36.50
2023-07-22T15:50:28.389Z,36.22
2023-07-22T15:52:55.767Z,36.33
2023-07-22T15:55:23.272Z,36.34
2023-07-22T15:57:50.510Z,36.36
2023-07-22T16:00:17.765Z,36.02
2023-07-22T16:02:45.131Z,36.07
2023-07-22T16:05:22.456Z,36.08
2023-07-22T16:07:50.742Z,36.41
2023-07-22T16:10:17.940Z,36.66
2023-07-22T16:12:45.159Z,36.80
2023-07-22T16:15:12.449Z,36.62
2023-07-22T16:17:39.594Z,36.98
2023-07-22T16:20:07.745Z,38.16
2023-07-22T16:22:35.313Z,39.13
2023-07-22T16:25:03.517Z,39.98
2023-07-22T16:27:30.767Z,40.56
2023-07-22T16:29:58.029Z,40.68
2023-07-22T16:32:25.336Z,40.71
2023-07-22T16:34:52.677Z,40.92
2023-07-22T16:37:20.038Z,40.84
2023-07-22T16:39:47.851Z,40.97
2023-07-22T16:42:14.948Z,41.30
2023-07-22T16:44:41.917Z,41.39
2023-07-22T16:47:09.228Z,41.16
2023-07-22T16:49:36.375Z,41.20
2023-07-22T16:52:03.663Z,41.13
2023-07-22T16:54:30.897Z,41.33
2023-07-22T16:56:58.024Z,41.50
2023-07-22T16:59:25.341Z,41.08
2023-07-22T17:01:52.565Z,40.96
2023-07-22T17:04:20.160Z,41.52
2023-07-22T17:06:47.494Z,41.20
2023-07-22T17:09:15.114Z,41.13
2023-07-22T17:11:42.786Z,41.30
2023-07-22T17:14:09.943Z,41.07
2023-07-22T17:16:37.276Z,41.28
2023-07-22T17:19:04.565Z,41.26
2023-07-22T17:21:32.013Z,41.55
2023-07-22T17:23:59.373Z,41.79
2023-07-22T17:26:26.546Z,41.85
2023-07-22T17:28:54.029Z,42.27
2023-07-22T17:31:21.273Z,42.03
2023-07-22T17:33:48.590Z,42.09
2023-07-22T17:36:15.765Z,42.23
2023-07-22T17:38:43.010Z,42.52
2023-07-22T17:41:10.240Z,42.55
2023-07-22T17:43:39.028Z,42.91
2023-07-22T17:46:06.486Z,42.84
2023-07-22T17:48:37.567Z,43.26
2023-07-22T17:51:04.759Z,43.32
2023-07-22T17:53:32.041Z,43.17
2023-07-22T17:55:59.083Z,43.33
2023-07-22T17:58:26.248Z,43.41
2023-07-22T18:00:53.330Z,43.70
2023-07-22T18:03:20.468Z,43.89
2023-07-22T18:05:51.056Z,44.00
2023-07-22T18:08:23.683Z,44.23
2023-07-22T18:10:51.896Z,44.11
2023-07-22T18:13:19.015Z,44.14
2023-07-22T18:15:46.060Z,44.05
2023-07-22T18:18:13.350Z,44.12
2023-07-22T18:20:40.813Z,44.95
2023-07-22T18:23:08.165Z,45.04
2023-07-22T18:25:42.877Z,45.52
2023-07-22T18:28:17.312Z,45.58
2023-07-22T18:30:44.606Z,45.66
2023-07-22T18:33:15.322Z,45.69
2023-07-22T18:35:50.885Z,45.64
2023-07-22T18:38:19.310Z,45.73
2023-07-22T18:40:47.791Z,45.88
2023-07-22T18:43:15.680Z,46.00
2023-07-22T18:45:46.264Z,46.37
2023-07-22T18:48:13.634Z,46.29
2023-07-22T18:50:41.120Z,46.52
2023-07-22T18:53:08.472Z,46.69
2023-07-22T18:55:39.245Z,46.66
2023-07-22T18:58:07.861Z,46.62
2023-07-22T19:00:45.240Z,46.51
2023-07-22T19:03:36.247Z,46.85
2023-07-22T19:06:20.173Z,47.10
2023-07-22T19:08:50.724Z,47.62
2023-07-22T19:11:19.718Z,47.89
2023-07-22T19:13:51.247Z,48.23
2023-07-22T19:16:18.328Z,48.04
2023-07-22T19:18:46.435Z,48.15
2023-07-22T19:21:13.817Z,48.63
2023-07-22T19:23:51.893Z,48.84
2023-07-22T19:26:20.668Z,48.73
2023-07-22T19:28:51.605Z,48.79
2023-07-22T19:31:35.133Z,49.02
2023-07-22T19:34:16.187Z,49.27
2023-07-22T19:36:51.129Z,49.23
2023-07-22T19:39:18.695Z,49.68
2023-07-22T19:41:56.990Z,50.10
2023-07-22T19:44:28.860Z,50.61
2023-07-22T19:46:56.129Z,51.03
2023-07-22T19:49:46.551Z,51.66
2023-07-22T19:52:26.678Z,51.71
2023-07-22T19:54:55.073Z,52.24
2023-07-22T19:57:22.433Z,52.32
2023-07-22T19:59:59.107Z,52.37
2023-07-22T20:02:51.210Z,52.59
2023-07-22T20:05:24.678Z,52.61
2023-07-22T20:07:52.304Z,52.72
2023-07-22T20:10:19.443Z,52.86
2023-07-22T20:12:48.615Z,52.80
2023-07-22T20:15:15.792Z,52.92
2023-07-22T20:17:42.937Z,52.95
2023-07-22T20:20:10.731Z,52.70
2023-07-22T20:22:41.550Z,53.22
2023-07-22T20:25:10.861Z,53.17
2023-07-22T20:27:38.505Z,53.80
2023-07-22T20:30:17.491Z,53.96
2023-07-22T20:32:44.803Z,53.99
2023-07-22T20:35:13.962Z,54.11
2023-07-22T20:37:41.796Z,53.89
2023-07-22T20:40:10.594Z,54.21
2023-07-22T20:42:40.366Z,54.07
2023-07-22T20:45:08.426Z,54.17
2023-07-22T20:47:52.598Z,54.37
2023-07-22T20:50:41.316Z,54.64
2023-07-22T20:53:19.564Z,54.05
2023-07-22T20:55:49.236Z,54.64
2023-07-22T20:58:16.559Z,54.62
2023-07-22T21:00:44.368Z,54.76
2023-07-22T21:03:12.048Z,55.02
2023-07-22T21:05:39.362Z,55.40
2023-07-22T21:08:06.937Z,55.30
2023-07-22T21:10:33.959Z,55.49
2023-07-22T21:13:01.777Z,56.01
2023-07-22T21:15:28.827Z,56.27
2023-07-22T21:17:56.027Z,56.09
2023-07-22T21:20:23.104Z,56.01
2023-07-22T21:22:50.219Z,56.20
2023-07-22T21:25:17.982Z,56.42
2023-07-22T21:27:48.443Z,56.50
2023-07-22T21:30:16.245Z,56.74
2023-07-22T21:32:43.406Z,56.56
2023-07-22T21:35:10.653Z,56.65
2023-07-22T21:37:37.838Z,56.81
2023-07-22T21:40:06.193Z,56.63
2023-07-22T21:42:33.353Z,56.72
2023-07-22T21:45:00.777Z,56.69
2023-07-22T21:47:28.099Z,56.71
2023-07-22T21:49:55.236Z,56.83
2023-07-22T21:52:22.627Z,56.78
2023-07-22T21:54:49.941Z,57.13
2023-07-22T21:57:17.939Z,57.15
2023-07-22T21:59:45.384Z,56.85
2023-07-22T22:02:13.734Z,56.92
2023-07-22T22:04:41.048Z,57.08
2023-07-22T22:07:08.229Z,56.63
2023-07-22T22:09:35.691Z,56.98
2023-07-22T22:12:02.902Z,56.71
2023-07-22T22:14:30.093Z,56.97
2023-07-22T22:16:57.229Z,56.64
2023-07-22T22:19:24.457Z,56.81
2023-07-22T22:21:51.960Z,56.94
2023-07-22T22:24:19.974Z,56.67
2023-07-22T22:26:50.181Z,56.59
2023-07-22T22:29:17.351Z,57.23
2023-07-22T22:31:51.968Z,56.95
2023-07-22T22:34:20.280Z,57.08
2023-07-22T22:36:47.484Z,57.18
2023-07-22T22:39:14.611Z,56.68
2023-07-22T22:41:41.718Z,57.25
2023-07-22T22:44:08.879Z,57.33
2023-07-22T22:46:36.111Z,57.34
2023-07-22T22:49:03.597Z,57.13
2023-07-22T22:51:30.878Z,57.15
2023-07-22T22:53:57.997Z,57.67
2023-07-22T22:56:25.213Z,57.95
2023-07-22T22:58:52.508Z,57.74
2023-07-22T23:01:20.010Z,58.13
2023-07-22T23:03:47.277Z,57.88
2023-07-22T23:06:16.276Z,57.49
2023-07-22T23:08:43.488Z,57.40
2023-07-22T23:11:18.932Z,57.15
2023-07-22T23:13:48.292Z,56.90
2023-07-22T23:16:20.019Z,57.08
2023-07-22T23:18:49.120Z,56.56
2023-07-22T23:21:17.993Z,56.47
2023-07-22T23:23:47.824Z,56.50
2023-07-22T23:26:16.316Z,56.11
2023-07-22T23:28:44.270Z,56.63
2023-07-22T23:31:12.331Z,56.58
2023-07-22T23:33:39.637Z,56.23
2023-07-22T23:36:08.750Z,56.40
2023-07-22T23:38:35.845Z,56.70
2023-07-22T23:41:03.165Z,56.58
2023-07-22T23:43:30.681Z,56.27
2023-07-22T23:45:58.282Z,56.48
2023-07-22T23:48:25.607Z,56.23
2023-07-22T23:50:53.645Z,56.42
2023-07-22T23:53:21.415Z,56.43
2023-07-22T23:55:48.577Z,56.92
2023-07-22T23:58:15.657Z,57.25
